Normed Antwerpen — V2DG9 — position and weather

sailwx.info

Track history (hours):
 
Tides and Currents Weather Stations Pressure Air Temp Water Temp Dewpoint Dewpoint Depression Visibility Wind Speed Wind Dir Waves Ship Positions

Normed Antwerpen

Last reported at 2014-Sep-27 06:07 UTC. Time now 2014-Sep-30 13:56 UTC.
Position N 37°30' W 009°46'.

Length 130 m; draft 6.2 m.

Type: Ship. MMSI: 305210993.

Date/timePositionNaut miles runAvg speedWind from/ knotsBaromVisibWave heightAir tempDewpointWater temp
2014-Sep-27 06:07N 37°30' W 009°46'712.3
2014-Sep-27 05:32N 37°37' W 009°48'1312.2
2014-Sep-27 04:31N 37°49' W 009°52'1212.3
2014-Sep-27 03:32N 38°01' W 009°55'1212.1
2014-Sep-27 02:33N 38°13' W 009°58'1211.7
2014-Sep-27 01:33N 38°24' W 010°02'1611.9
2014-Sep-27 00:10N 38°40' W 010°06'811.9
2014-Sep-26 23:33N 38°48' W 010°07'  
2014-Sep-24 02:27N 50°26' W 000°25'2914.2
2014-Sep-24 00:26N 50°34' E 000°19'1213.0
2014-Sep-23 23:32N 50°39' E 000°36'1212.1
2014-Sep-23 22:33N 50°45' E 000°52'2612.3
2014-Sep-23 20:26N 51°02' E 001°23'1315.1
2014-Sep-23 19:33N 51°10' E 001°40'1514.8
2014-Sep-23 18:33N 51°22' E 001°53'1312.0
2014-Sep-23 17:31N 51°22' E 002°13'1313.1
2014-Sep-23 16:33N 51°23' E 002°33'1412.8
2014-Sep-23 15:29N 51°23' E 002°55'1312.5
2014-Sep-23 14:27N 51°25' E 003°16'1112.7
2014-Sep-23 13:33N 51°26' E 003°34'5 5.0
2014-Sep-23 12:31N 51°28' E 003°42'0 0.0
2014-Sep-23 11:31N 51°28' E 003°42'0 0.0
2014-Sep-23 10:30N 51°28' E 003°42'0 0.0
2014-Sep-23 09:30N 51°28' E 003°42'0 0.0
2014-Sep-23 08:32N 51°28' E 003°42'0 0.0
2014-Sep-23 07:29N 51°28' E 003°42'0 0.0
2014-Sep-23 06:28N 51°28' E 003°42'0 0.0
2014-Sep-23 05:29N 51°28' E 003°42'0 0.0
2014-Sep-23 04:27N 51°28' E 003°42'0 0.0
2014-Sep-23 03:33N 51°28' E 003°42'0 0.0
2014-Sep-23 02:33N 51°28' E 003°42'0 0.0
2014-Sep-23 01:32N 51°28' E 003°42'0 0.0
2014-Sep-23 00:32N 51°28' E 003°42'0 0.0
2014-Sep-22 23:31N 51°28' E 003°42'0 0.0
2014-Sep-22 22:31N 51°28' E 003°42'0 0.0
2014-Sep-22 21:30N 51°28' E 003°42'0 0.0
2014-Sep-22 20:32N 51°28' E 003°42'0 0.0
2014-Sep-22 19:30N 51°28' E 003°42'0 0.0
2014-Sep-22 18:29N 51°28' E 003°42'0 0.0
2014-Sep-22 17:32N 51°28' E 003°42'0 0.0
2014-Sep-22 16:28N 51°28' E 003°42'0 0.0
2014-Sep-22 15:28N 51°28' E 003°42'0 0.0
2014-Sep-22 14:33N 51°28' E 003°42'0 0.0
2014-Sep-22 13:33N 51°28' E 003°42'0 0.0
2014-Sep-22 12:33N 51°28' E 003°42'0 0.0
2014-Sep-22 11:32N 51°28' E 003°42'0 0.0
2014-Sep-22 10:32N 51°28' E 003°42'0 0.0
2014-Sep-22 09:31N 51°28' E 003°42'0 0.0
2014-Sep-22 08:31N 51°28' E 003°42'0 0.0
2014-Sep-22 07:30N 51°28' E 003°42'0 0.0
2014-Sep-22 06:33N 51°28' E 003°42'0 0.0
2014-Sep-22 05:30N 51°28' E 003°42'0 0.0
2014-Sep-22 04:29N 51°28' E 003°42'0 0.0
2014-Sep-22 03:29N 51°28' E 003°42'0 0.0
2014-Sep-22 02:31N 51°28' E 003°42'0 0.0
2014-Sep-22 01:28N 51°28' E 003°42'0 0.0
2014-Sep-22 00:30N 51°28' E 003°42'0 0.0
2014-Sep-21 23:33N 51°28' E 003°42'0 0.0
2014-Sep-21 22:33N 51°28' E 003°42'0 0.0
2014-Sep-21 21:32N 51°28' E 003°42'0 0.0
2014-Sep-21 20:32N 51°28' E 003°42'0 0.0
2014-Sep-21 19:31N 51°28' E 003°42'0 0.0
2014-Sep-21 18:31N 51°28' E 003°42'0 0.0
2014-Sep-21 17:30N 51°28' E 003°42'0 0.0
2014-Sep-21 16:30N 51°28' E 003°42'0 0.0
2014-Sep-21 15:30N 51°28' E 003°42'0 0.0
2014-Sep-21 14:29N 51°28' E 003°42'0 0.0
2014-Sep-21 13:29N 51°28' E 003°42'0 0.2
2014-Sep-21 12:28N 51°28' E 003°42'8 8.8
2014-Sep-21 11:34N 51°21' E 003°49'9 9.3
2014-Sep-21 10:33N 51°25' E 004°02'9 8.8
2014-Sep-21 09:34N 51°21' E 004°15'2 1.8
2014-Sep-21 08:34N 51°21' E 004°17'6 6.1
2014-Sep-21 07:33N 51°15' E 004°22'0 0.4
2014-Sep-21 06:32N 51°15' E 004°22'0 0.0
2014-Sep-21 05:32N 51°15' E 004°22'0 0.0
2014-Sep-21 04:31N 51°15' E 004°22'0 0.0
2014-Sep-21 03:28N 51°15' E 004°22'0 0.0
2014-Sep-21 02:34N 51°15' E 004°22'0 0.0
2014-Sep-21 01:33N 51°15' E 004°22'0 0.0
2014-Sep-21 00:33N 51°15' E 004°22'0 0.0
2014-Sep-20 23:32N 51°15' E 004°22'0 0.0
2014-Sep-20 22:26N 51°15' E 004°22'0 0.0
2014-Sep-20 21:31N 51°15' E 004°22'0 0.0
2014-Sep-20 20:28N 51°15' E 004°22'0 0.0
2014-Sep-20 19:34N 51°15' E 004°22'0 0.0
2014-Sep-20 18:33N 51°15' E 004°22'0 0.0
2014-Sep-20 17:33N 51°15' E 004°22'0 0.0
2014-Sep-20 16:29N 51°15' E 004°22'0 0.0
2014-Sep-20 15:32N 51°15' E 004°22'0 0.0
2014-Sep-20 14:31N 51°15' E 004°22'0 0.0
2014-Sep-20 13:28N 51°15' E 004°22'0 0.0
2014-Sep-20 12:33N 51°15' E 004°22'0 0.0
2014-Sep-20 11:33N 51°15' E 004°22'0 0.0
2014-Sep-20 10:33N 51°15' E 004°22'0 0.0
2014-Sep-20 09:32N 51°15' E 004°22'0 0.0
2014-Sep-20 08:32N 51°15' E 004°22'0 0.0
2014-Sep-20 07:31N 51°15' E 004°22'0 0.0
2014-Sep-20 06:31N 51°15' E 004°22'0 0.0
2014-Sep-20 05:33N 51°15' E 004°22'0 0.0
2014-Sep-20 04:33N 51°15' E 004°22'0 0.0
2014-Sep-20 03:33N 51°15' E 004°22'0 0.0
2014-Sep-20 02:32N 51°15' E 004°22'0 0.0
2014-Sep-20 01:32N 51°15' E 004°22'0 0.0
2014-Sep-20 00:31N 51°15' E 004°22'0 0.0
2014-Sep-19 23:31N 51°15' E 004°22'0 0.0
2014-Sep-19 22:33N 51°15' E 004°22'1 1.4
2014-Sep-19 21:31N 51°15' E 004°24'0 0.0
2014-Sep-19 20:31N 51°15' E 004°24'0 0.0
2014-Sep-19 19:33N 51°15' E 004°24'0 0.0
2014-Sep-19 18:33N 51°15' E 004°24'0 0.0
2014-Sep-19 17:33N 51°15' E 004°24'0 0.0
2014-Sep-19 16:32N 51°15' E 004°24'0 0.0
2014-Sep-19 15:32N 51°15' E 004°24'0 0.0
2014-Sep-19 14:31N 51°15' E 004°24'0 0.0
2014-Sep-19 13:31N 51°15' E 004°24'0 0.0
2014-Sep-19 12:33N 51°15' E 004°24'0 0.0
2014-Sep-19 11:33N 51°15' E 004°24'0 0.0
2014-Sep-19 10:33N 51°15' E 004°24'0 0.0
2014-Sep-19 09:32N 51°15' E 004°24'0 0.0
2014-Sep-19 08:32N 51°15' E 004°24'0 0.0
2014-Sep-19 07:31N 51°15' E 004°24'0 0.0
2014-Sep-19 06:31N 51°15' E 004°24'0 0.0
2014-Sep-19 05:33N 51°15' E 004°24'0 0.0
2014-Sep-19 04:33N 51°15' E 004°24'0 0.0
2014-Sep-19 03:32N 51°15' E 004°24'0 0.0
2014-Sep-19 02:32N 51°15' E 004°24'0 0.0
2014-Sep-19 01:32N 51°15' E 004°24'0 0.0
2014-Sep-19 00:31N 51°15' E 004°24'0 0.0
2014-Sep-18 23:31N 51°15' E 004°24'0 0.0
2014-Sep-18 22:33N 51°15' E 004°24'0 0.0
2014-Sep-18 21:33N 51°15' E 004°24'0 0.0
2014-Sep-18 20:32N 51°15' E 004°24'0 0.0
2014-Sep-18 19:32N 51°15' E 004°24'0 0.4
2014-Sep-18 18:34N 51°15' E 004°24'3 2.8
2014-Sep-18 17:33N 51°17' E 004°20'0 0.3
2014-Sep-18 16:33N 51°17' E 004°20'4 3.8
2014-Sep-18 15:34N 51°20' E 004°16'6 6.5
2014-Sep-18 14:34N 51°22' E 004°07'7 6.5
2014-Sep-18 13:33N 51°23' E 003°56'9 8.8
2014-Sep-18 12:33N 51°25' E 003°42'8 8.4
2014-Sep-18 11:34N 51°29' E 003°30'1211.8
2014-Sep-18 10:33N 51°39' E 003°20'1010.2
2014-Sep-18 09:33N 51°48' E 003°15'1110.4
2014-Sep-18 08:32N 51°59' E 003°20'1111.4
2014-Sep-18 07:33N 52°09' E 003°27'1211.8
2014-Sep-18 06:33N 52°19' E 003°37'1212.2
2014-Sep-18 05:33N 52°28' E 003°51'1312.6
2014-Sep-18 04:33N 52°40' E 003°56'1312.7
2014-Sep-18 03:33N 52°53' E 003°59'1312.7
2014-Sep-18 02:33N 53°03' E 004°11'1313.3
2014-Sep-18 01:33N 53°13' E 004°26'1312.9
2014-Sep-18 00:33N 53°25' E 004°35'1312.5
2014-Sep-17 23:33N 53°32' E 004°53'1313.3
2014-Sep-17 22:33N 53°36' E 005°14'1414.1
2014-Sep-17 21:33N 53°41' E 005°36'1514.7
2014-Sep-17 20:33N 53°45' E 006°00'2114.9
2014-Sep-17 19:10N 53°51' E 006°34'1014.7
2014-Sep-17 18:30N 53°53' E 006°50'2714.1
2014-Sep-17 16:33N 53°59' E 007°35'1312.4
2014-Sep-17 15:33N 53°52' E 007°53'1312.8
2014-Sep-17 14:33N 53°46' E 008°12'1313.0
2014-Sep-17 13:33N 53°37' E 008°28'1110.6
2014-Sep-17 12:33N 53°27' E 008°29'1212.3
2014-Sep-17 11:33N 53°14' E 008°29'9 8.8
2014-Sep-17 10:34N 53°08' E 008°39'4 3.9
2014-Sep-17 09:33N 53°06' E 008°44'0 0.0
2014-Sep-17 08:33N 53°06' E 008°44'0 0.0
2014-Sep-17 07:32N 53°06' E 008°44'0 0.0
2014-Sep-17 06:32N 53°06' E 008°44'  
Track history (hours):
 
Tides and Currents Weather Stations Pressure Air Temp Water Temp Dewpoint Dewpoint Depression Visibility Wind Speed Wind Dir Waves Ship Positions

Normed Antwerpen

Last reported at 2014-Sep-27 06:07 UTC. Time now 2014-Sep-30 13:56 UTC.
Position N 37°30' W 009°46'.

Length 130 m; draft 6.2 m.

Type: Ship. MMSI: 305210993.

Date/timePositionNaut miles runAvg speedWind from/ knotsBaromVisibWave heightAir tempDewpointWater temp
2014-Sep-27 06:07N 37°30' W 009°46'712.3
2014-Sep-27 05:32N 37°37' W 009°48'1312.2
2014-Sep-27 04:31N 37°49' W 009°52'1212.3
2014-Sep-27 03:32N 38°01' W 009°55'1212.1
2014-Sep-27 02:33N 38°13' W 009°58'1211.7
2014-Sep-27 01:33N 38°24' W 010°02'1611.9
2014-Sep-27 00:10N 38°40' W 010°06'811.9
2014-Sep-26 23:33N 38°48' W 010°07'  
2014-Sep-24 02:27N 50°26' W 000°25'2914.2
2014-Sep-24 00:26N 50°34' E 000°19'1213.0
2014-Sep-23 23:32N 50°39' E 000°36'1212.1
2014-Sep-23 22:33N 50°45' E 000°52'2612.3
2014-Sep-23 20:26N 51°02' E 001°23'1315.1
2014-Sep-23 19:33N 51°10' E 001°40'1514.8
2014-Sep-23 18:33N 51°22' E 001°53'1312.0
2014-Sep-23 17:31N 51°22' E 002°13'1313.1
2014-Sep-23 16:33N 51°23' E 002°33'1412.8
2014-Sep-23 15:29N 51°23' E 002°55'1312.5
2014-Sep-23 14:27N 51°25' E 003°16'1112.7
2014-Sep-23 13:33N 51°26' E 003°34'5 5.0
2014-Sep-23 12:31N 51°28' E 003°42'0 0.0
2014-Sep-23 11:31N 51°28' E 003°42'0 0.0
2014-Sep-23 10:30N 51°28' E 003°42'0 0.0
2014-Sep-23 09:30N 51°28' E 003°42'0 0.0
2014-Sep-23 08:32N 51°28' E 003°42'0 0.0
2014-Sep-23 07:29N 51°28' E 003°42'0 0.0
2014-Sep-23 06:28N 51°28' E 003°42'0 0.0
2014-Sep-23 05:29N 51°28' E 003°42'0 0.0
2014-Sep-23 04:27N 51°28' E 003°42'0 0.0
2014-Sep-23 03:33N 51°28' E 003°42'0 0.0
2014-Sep-23 02:33N 51°28' E 003°42'0 0.0
2014-Sep-23 01:32N 51°28' E 003°42'0 0.0
2014-Sep-23 00:32N 51°28' E 003°42'0 0.0
2014-Sep-22 23:31N 51°28' E 003°42'0 0.0
2014-Sep-22 22:31N 51°28' E 003°42'0 0.0
2014-Sep-22 21:30N 51°28' E 003°42'0 0.0
2014-Sep-22 20:32N 51°28' E 003°42'0 0.0
2014-Sep-22 19:30N 51°28' E 003°42'0 0.0
2014-Sep-22 18:29N 51°28' E 003°42'0 0.0
2014-Sep-22 17:32N 51°28' E 003°42'0 0.0
2014-Sep-22 16:28N 51°28' E 003°42'0 0.0
2014-Sep-22 15:28N 51°28' E 003°42'0 0.0
2014-Sep-22 14:33N 51°28' E 003°42'0 0.0
2014-Sep-22 13:33N 51°28' E 003°42'0 0.0
2014-Sep-22 12:33N 51°28' E 003°42'0 0.0
2014-Sep-22 11:32N 51°28' E 003°42'0 0.0
2014-Sep-22 10:32N 51°28' E 003°42'0 0.0
2014-Sep-22 09:31N 51°28' E 003°42'0 0.0
2014-Sep-22 08:31N 51°28' E 003°42'0 0.0
2014-Sep-22 07:30N 51°28' E 003°42'0 0.0
2014-Sep-22 06:33N 51°28' E 003°42'0 0.0
2014-Sep-22 05:30N 51°28' E 003°42'0 0.0
2014-Sep-22 04:29N 51°28' E 003°42'0 0.0
2014-Sep-22 03:29N 51°28' E 003°42'0 0.0
2014-Sep-22 02:31N 51°28' E 003°42'0 0.0
2014-Sep-22 01:28N 51°28' E 003°42'0 0.0
2014-Sep-22 00:30N 51°28' E 003°42'0 0.0
2014-Sep-21 23:33N 51°28' E 003°42'0 0.0
2014-Sep-21 22:33N 51°28' E 003°42'0 0.0
2014-Sep-21 21:32N 51°28' E 003°42'0 0.0
2014-Sep-21 20:32N 51°28' E 003°42'0 0.0
2014-Sep-21 19:31N 51°28' E 003°42'0 0.0
2014-Sep-21 18:31N 51°28' E 003°42'0 0.0
2014-Sep-21 17:30N 51°28' E 003°42'0 0.0
2014-Sep-21 16:30N 51°28' E 003°42'0 0.0
2014-Sep-21 15:30N 51°28' E 003°42'0 0.0
2014-Sep-21 14:29N 51°28' E 003°42'0 0.0
2014-Sep-21 13:29N 51°28' E 003°42'0 0.2
2014-Sep-21 12:28N 51°28' E 003°42'8 8.8
2014-Sep-21 11:34N 51°21' E 003°49'9 9.3
2014-Sep-21 10:33N 51°25' E 004°02'9 8.8
2014-Sep-21 09:34N 51°21' E 004°15'2 1.8
2014-Sep-21 08:34N 51°21' E 004°17'6 6.1
2014-Sep-21 07:33N 51°15' E 004°22'0 0.4
2014-Sep-21 06:32N 51°15' E 004°22'0 0.0
2014-Sep-21 05:32N 51°15' E 004°22'0 0.0
2014-Sep-21 04:31N 51°15' E 004°22'0 0.0
2014-Sep-21 03:28N 51°15' E 004°22'0 0.0
2014-Sep-21 02:34N 51°15' E 004°22'0 0.0
2014-Sep-21 01:33N 51°15' E 004°22'0 0.0
2014-Sep-21 00:33N 51°15' E 004°22'0 0.0
2014-Sep-20 23:32N 51°15' E 004°22'0 0.0
2014-Sep-20 22:26N 51°15' E 004°22'0 0.0
2014-Sep-20 21:31N 51°15' E 004°22'0 0.0
2014-Sep-20 20:28N 51°15' E 004°22'0 0.0
2014-Sep-20 19:34N 51°15' E 004°22'0 0.0
2014-Sep-20 18:33N 51°15' E 004°22'0 0.0
2014-Sep-20 17:33N 51°15' E 004°22'0 0.0
2014-Sep-20 16:29N 51°15' E 004°22'0 0.0
2014-Sep-20 15:32N 51°15' E 004°22'0 0.0
2014-Sep-20 14:31N 51°15' E 004°22'0 0.0
2014-Sep-20 13:28N 51°15' E 004°22'0 0.0
2014-Sep-20 12:33N 51°15' E 004°22'0 0.0
2014-Sep-20 11:33N 51°15' E 004°22'0 0.0
2014-Sep-20 10:33N 51°15' E 004°22'0 0.0
2014-Sep-20 09:32N 51°15' E 004°22'0 0.0
2014-Sep-20 08:32N 51°15' E 004°22'0 0.0
2014-Sep-20 07:31N 51°15' E 004°22'0 0.0
2014-Sep-20 06:31N 51°15' E 004°22'0 0.0
2014-Sep-20 05:33N 51°15' E 004°22'0 0.0
2014-Sep-20 04:33N 51°15' E 004°22'0 0.0
2014-Sep-20 03:33N 51°15' E 004°22'0 0.0
2014-Sep-20 02:32N 51°15' E 004°22'0 0.0
2014-Sep-20 01:32N 51°15' E 004°22'0 0.0
2014-Sep-20 00:31N 51°15' E 004°22'0 0.0
2014-Sep-19 23:31N 51°15' E 004°22'0 0.0
2014-Sep-19 22:33N 51°15' E 004°22'1 1.4
2014-Sep-19 21:31N 51°15' E 004°24'0 0.0
2014-Sep-19 20:31N 51°15' E 004°24'0 0.0
2014-Sep-19 19:33N 51°15' E 004°24'0 0.0
2014-Sep-19 18:33N 51°15' E 004°24'0 0.0
2014-Sep-19 17:33N 51°15' E 004°24'0 0.0
2014-Sep-19 16:32N 51°15' E 004°24'0 0.0
2014-Sep-19 15:32N 51°15' E 004°24'0 0.0
2014-Sep-19 14:31N 51°15' E 004°24'0 0.0
2014-Sep-19 13:31N 51°15' E 004°24'0 0.0
2014-Sep-19 12:33N 51°15' E 004°24'0 0.0
2014-Sep-19 11:33N 51°15' E 004°24'0 0.0
2014-Sep-19 10:33N 51°15' E 004°24'0 0.0
2014-Sep-19 09:32N 51°15' E 004°24'0 0.0
2014-Sep-19 08:32N 51°15' E 004°24'0 0.0
2014-Sep-19 07:31N 51°15' E 004°24'0 0.0
2014-Sep-19 06:31N 51°15' E 004°24'0 0.0
2014-Sep-19 05:33N 51°15' E 004°24'0 0.0
2014-Sep-19 04:33N 51°15' E 004°24'0 0.0
2014-Sep-19 03:32N 51°15' E 004°24'0 0.0
2014-Sep-19 02:32N 51°15' E 004°24'0 0.0
2014-Sep-19 01:32N 51°15' E 004°24'0 0.0
2014-Sep-19 00:31N 51°15' E 004°24'0 0.0
2014-Sep-18 23:31N 51°15' E 004°24'0 0.0
2014-Sep-18 22:33N 51°15' E 004°24'0 0.0
2014-Sep-18 21:33N 51°15' E 004°24'0 0.0
2014-Sep-18 20:32N 51°15' E 004°24'0 0.0
2014-Sep-18 19:32N 51°15' E 004°24'0 0.4
2014-Sep-18 18:34N 51°15' E 004°24'3 2.8
2014-Sep-18 17:33N 51°17' E 004°20'0 0.3
2014-Sep-18 16:33N 51°17' E 004°20'4 3.8
2014-Sep-18 15:34N 51°20' E 004°16'6 6.5
2014-Sep-18 14:34N 51°22' E 004°07'7 6.5
2014-Sep-18 13:33N 51°23' E 003°56'9 8.8
2014-Sep-18 12:33N 51°25' E 003°42'8 8.4
2014-Sep-18 11:34N 51°29' E 003°30'1211.8
2014-Sep-18 10:33N 51°39' E 003°20'1010.2
2014-Sep-18 09:33N 51°48' E 003°15'1110.4
2014-Sep-18 08:32N 51°59' E 003°20'1111.4
2014-Sep-18 07:33N 52°09' E 003°27'1211.8
2014-Sep-18 06:33N 52°19' E 003°37'1212.2
2014-Sep-18 05:33N 52°28' E 003°51'1312.6
2014-Sep-18 04:33N 52°40' E 003°56'1312.7
2014-Sep-18 03:33N 52°53' E 003°59'1312.7
2014-Sep-18 02:33N 53°03' E 004°11'1313.3
2014-Sep-18 01:33N 53°13' E 004°26'1312.9
2014-Sep-18 00:33N 53°25' E 004°35'1312.5
2014-Sep-17 23:33N 53°32' E 004°53'1313.3
2014-Sep-17 22:33N 53°36' E 005°14'1414.1
2014-Sep-17 21:33N 53°41' E 005°36'1514.7
2014-Sep-17 20:33N 53°45' E 006°00'2114.9
2014-Sep-17 19:10N 53°51' E 006°34'1014.7
2014-Sep-17 18:30N 53°53' E 006°50'2714.1
2014-Sep-17 16:33N 53°59' E 007°35'1312.4
2014-Sep-17 15:33N 53°52' E 007°53'1312.8
2014-Sep-17 14:33N 53°46' E 008°12'1313.0
2014-Sep-17 13:33N 53°37' E 008°28'1110.6
2014-Sep-17 12:33N 53°27' E 008°29'1212.3
2014-Sep-17 11:33N 53°14' E 008°29'9 8.8
2014-Sep-17 10:34N 53°08' E 008°39'4 3.9
2014-Sep-17 09:33N 53°06' E 008°44'0 0.0
2014-Sep-17 08:33N 53°06' E 008°44'0 0.0
2014-Sep-17 07:32N 53°06' E 008°44'0 0.0
2014-Sep-17 06:32N 53°06' E 008°44'  

Dump ship's entire track history